King of Scandinavia — OVOL2 — position and weather

sailwx.info

Track history (hours):
 
Tides and Currents Weather Stations Pressure Air Temp Water Temp Dewpoint Dewpoint Depression Visibility Wind Speed Wind Dir Waves Ship Positions

King of Scandinavia

Ship's website: http://www.dfds.co.uk/DSW/EN/OnBoard/na/KING.htm

Last reported at 2015-Feb-01 08:33 UTC. Time now 2015-Feb-01 08:48 UTC.
Position N 54°34' W 000°11'.

Length 166 m; beam 27.6 m; draft 6.2 m.

Type: Passenger vessel. MMSI: 220449000.

Date/timePositionNaut miles runAvg speedWind from/ knotsBaromVisibWave heightAir tempDewpointWater temp
2015-Feb-01 08:33N 54°34' W 000°11'1313.3
2015-Feb-01 07:33N 54°26' E 000°09'1312.9
2015-Feb-01 06:33N 54°19' E 000°27'15813.1
2015-Jan-31 18:33N 52°45' E 003°59'1414.2
2015-Jan-31 17:33N 52°36' E 004°17'1313.2
2015-Jan-31 16:34N 52°28' E 004°34'0 0.4
2015-Jan-31 15:32N 52°28' E 004°35'0 0.0
2015-Jan-31 14:32N 52°28' E 004°35'0 0.0
2015-Jan-31 13:32N 52°28' E 004°35'0 0.0
2015-Jan-31 12:32N 52°28' E 004°35'0 0.0
2015-Jan-31 11:32N 52°28' E 004°35'0 0.0
2015-Jan-31 10:32N 52°28' E 004°35'0 0.0
2015-Jan-31 09:32N 52°28' E 004°35'0 0.0
2015-Jan-31 08:34N 52°28' E 004°35'1111.2
2015-Jan-31 07:34N 52°34' E 004°20'1615.5
2015-Jan-31 06:34N 52°44' E 004°00'14517.8
2015-Jan-30 22:25N 54°12' E 000°46'1517.2
2015-Jan-30 21:34N 54°20' E 000°25'1717.2
2015-Jan-30 20:34N 54°29' E 000°01'1918.8
2015-Jan-30 19:34N 54°39' W 000°26'1918.8
2015-Jan-30 18:33N 54°50' W 000°54'1919.0
2015-Jan-30 17:33N 55°00' W 001°21'12 1.2
2015-Jan-30 07:33N 54°54' W 001°03'1110.4
2015-Jan-30 06:33N 54°48' W 000°48'1413.7
2015-Jan-30 05:32N 54°40' W 000°28'1616.5
2015-Jan-30 04:33N 54°31' W 000°05'1918.5
2015-Jan-30 03:33N 54°21' E 000°22'15218.1
2015-Jan-29 19:10N 52°52' E 003°49'915.5
2015-Jan-29 18:34N 52°45' E 003°59'1515.0
2015-Jan-29 17:33N 52°35' E 004°18'1312.9
2015-Jan-29 16:33N 52°28' E 004°35'0 0.0
2015-Jan-29 15:33N 52°28' E 004°35'0 0.0
2015-Jan-29 14:33N 52°28' E 004°35'0 0.0
2015-Jan-29 13:33N 52°28' E 004°35'0 0.2
2015-Jan-29 12:33N 52°28' E 004°35'0 0.2
2015-Jan-29 11:33N 52°28' E 004°35'0 0.0
2015-Jan-29 10:33N 52°28' E 004°35'0 0.0
2015-Jan-29 09:33N 52°28' E 004°35'0 0.0
2015-Jan-29 08:33N 52°28' E 004°35'1 0.7
2015-Jan-29 07:33N 52°28' E 004°36'3 2.8
2015-Jan-29 06:33N 52°27' E 004°40'6 6.1
2015-Jan-29 05:34N 52°25' E 004°50'1 1.3
2015-Jan-29 04:32N 52°24' E 004°52'0 0.0
2015-Jan-29 03:29N 52°24' E 004°52'0 0.0
2015-Jan-29 02:29N 52°24' E 004°52'0 0.0
2015-Jan-29 01:32N 52°24' E 004°52'0 0.0
2015-Jan-29 00:32N 52°24' E 004°52'0 0.0
2015-Jan-28 23:32N 52°24' E 004°52'0 0.0
2015-Jan-28 22:32N 52°24' E 004°52'0 0.0
2015-Jan-28 21:32N 52°24' E 004°52'0 0.0
2015-Jan-28 20:32N 52°24' E 004°52'0 0.0
2015-Jan-28 19:32N 52°24' E 004°52'0 0.0
2015-Jan-28 18:32N 52°24' E 004°52'0 0.0
2015-Jan-28 17:32N 52°24' E 004°52'0 0.0
2015-Jan-28 16:32N 52°24' E 004°52'0 0.0
2015-Jan-28 15:32N 52°24' E 004°52'0 0.0
2015-Jan-28 14:32N 52°24' E 004°52'0 0.0
2015-Jan-28 13:32N 52°24' E 004°52'0 0.0
2015-Jan-28 12:32N 52°24' E 004°52'0 0.0
2015-Jan-28 11:33N 52°24' E 004°52'0 0.0
2015-Jan-28 10:33N 52°24' E 004°52'0 0.0
2015-Jan-28 09:33N 52°24' E 004°52'0 0.0
2015-Jan-28 08:33N 52°24' E 004°52'0 0.0
2015-Jan-28 07:33N 52°24' E 004°52'0 0.0
2015-Jan-28 06:30N 52°24' E 004°52'0 0.0
2015-Jan-28 05:33N 52°24' E 004°52'0 0.0
2015-Jan-28 04:33N 52°24' E 004°52'0 0.0
2015-Jan-28 03:33N 52°24' E 004°52'0 0.0
2015-Jan-28 02:33N 52°24' E 004°52'0 0.0
2015-Jan-28 01:33N 52°24' E 004°52'0 0.0
2015-Jan-28 00:33N 52°24' E 004°52'0 0.0
2015-Jan-27 23:33N 52°24' E 004°52'0 0.0
2015-Jan-27 22:33N 52°24' E 004°52'0 0.0
2015-Jan-27 21:33N 52°24' E 004°52'0 0.0
2015-Jan-27 20:33N 52°24' E 004°52'0 0.0
2015-Jan-27 19:33N 52°24' E 004°52'0 0.0
2015-Jan-27 18:33N 52°24' E 004°52'0 0.0
2015-Jan-27 17:33N 52°24' E 004°52'0 0.0
2015-Jan-27 16:33N 52°24' E 004°52'0 0.0
2015-Jan-27 15:33N 52°24' E 004°52'0 0.0
2015-Jan-27 14:33N 52°24' E 004°52'0 0.0
2015-Jan-27 13:33N 52°24' E 004°52'0 0.0
2015-Jan-27 12:33N 52°24' E 004°52'0 0.0
2015-Jan-27 11:33N 52°24' E 004°52'0 0.0
2015-Jan-27 10:33N 52°24' E 004°52'0 0.0
2015-Jan-27 09:33N 52°24' E 004°52'0 0.0
2015-Jan-27 08:33N 52°24' E 004°52'0 0.0
2015-Jan-27 07:33N 52°24' E 004°52'0 0.0
2015-Jan-27 06:33N 52°24' E 004°52'0 0.0
2015-Jan-27 05:33N 52°24' E 004°52'0 0.0
2015-Jan-27 04:33N 52°24' E 004°52'0 0.0
2015-Jan-27 03:33N 52°24' E 004°52'0 0.0
2015-Jan-27 02:33N 52°24' E 004°52'0 0.0
2015-Jan-27 01:33N 52°24' E 004°52'0 0.0
2015-Jan-27 00:33N 52°24' E 004°52'0 0.0
2015-Jan-26 23:33N 52°24' E 004°52'0 0.0
2015-Jan-26 22:33N 52°24' E 004°52'0 0.0
2015-Jan-26 21:33N 52°24' E 004°52'0 0.0
2015-Jan-26 20:33N 52°24' E 004°52'0 0.0
2015-Jan-26 19:33N 52°24' E 004°52'0 0.0
2015-Jan-26 18:33N 52°24' E 004°52'0 0.0
2015-Jan-26 17:33N 52°24' E 004°52'0 0.0
2015-Jan-26 16:33N 52°24' E 004°52'0 0.0
2015-Jan-26 15:33N 52°24' E 004°52'0 0.0
2015-Jan-26 14:33N 52°24' E 004°52'0 0.0
2015-Jan-26 13:33N 52°24' E 004°52'0 0.0
2015-Jan-26 12:33N 52°24' E 004°52'0 0.0
2015-Jan-26 11:33N 52°24' E 004°52'0 0.0
2015-Jan-26 10:33N 52°24' E 004°52'0 0.0
2015-Jan-26 09:33N 52°24' E 004°52'0 0.0
2015-Jan-26 08:33N 52°24' E 004°52'0 0.0
2015-Jan-26 07:33N 52°24' E 004°52'0 0.0
2015-Jan-26 06:33N 52°24' E 004°52'0 0.0
2015-Jan-26 05:33N 52°24' E 004°52'0 0.0
2015-Jan-26 04:33N 52°24' E 004°52'0 0.0
2015-Jan-26 03:33N 52°24' E 004°52'0 0.0
2015-Jan-26 02:33N 52°24' E 004°52'0 0.0
2015-Jan-26 01:33N 52°24' E 004°52'0 0.0
2015-Jan-26 00:33N 52°24' E 004°52'0 0.0
2015-Jan-25 23:33N 52°24' E 004°52'0 0.0
2015-Jan-25 22:33N 52°24' E 004°52'0 0.0
2015-Jan-25 21:33N 52°24' E 004°52'0 0.0
2015-Jan-25 20:33N 52°24' E 004°52'0 0.0
2015-Jan-25 19:33N 52°24' E 004°52'0 0.0
2015-Jan-25 18:33N 52°24' E 004°52'0 0.0
2015-Jan-25 17:33N 52°24' E 004°52'0 0.0
2015-Jan-25 16:33N 52°24' E 004°52'0 0.0
2015-Jan-25 15:33N 52°24' E 004°52'0 0.0
2015-Jan-25 14:33N 52°24' E 004°52'0 0.0
2015-Jan-25 13:33N 52°24' E 004°52'0 0.0
2015-Jan-25 12:33N 52°24' E 004°52'0 0.0
2015-Jan-25 11:33N 52°24' E 004°52'0 0.0
2015-Jan-25 10:30N 52°24' E 004°52'0 0.0
2015-Jan-25 09:33N 52°24' E 004°52'0 0.0
2015-Jan-25 08:33N 52°24' E 004°52'0 0.0
2015-Jan-25 07:33N 52°24' E 004°52'0 0.0
2015-Jan-25 06:33N 52°24' E 004°52'0 0.0
2015-Jan-25 05:33N 52°24' E 004°52'0 0.0
2015-Jan-25 04:33N 52°24' E 004°52'0 0.0
2015-Jan-25 03:33N 52°24' E 004°52'0 0.0
2015-Jan-25 02:33N 52°24' E 004°52'0 0.0
2015-Jan-25 01:33N 52°24' E 004°52'0 0.0
2015-Jan-25 00:33N 52°24' E 004°52'0 0.0
2015-Jan-24 23:33N 52°24' E 004°52'0 0.0
2015-Jan-24 22:33N 52°24' E 004°52'0 0.0
2015-Jan-24 21:33N 52°24' E 004°52'0 0.0
2015-Jan-24 20:33N 52°24' E 004°52'0 0.0
2015-Jan-24 19:33N 52°24' E 004°52'0 0.0
2015-Jan-24 18:33N 52°24' E 004°52'0 0.0
2015-Jan-24 17:33N 52°24' E 004°52'0 0.0
2015-Jan-24 16:33N 52°24' E 004°52'0 0.0
2015-Jan-24 15:33N 52°24' E 004°52'0 0.0
2015-Jan-24 14:33N 52°24' E 004°52'0 0.0
2015-Jan-24 13:33N 52°24' E 004°52'0 0.0
2015-Jan-24 12:33N 52°24' E 004°52'0 0.0
2015-Jan-24 11:33N 52°24' E 004°52'0 0.0
2015-Jan-24 10:33N 52°24' E 004°52'0 0.0
2015-Jan-24 09:33N 52°24' E 004°52'0 0.0
2015-Jan-24 08:33N 52°24' E 004°52'0 0.0
2015-Jan-24 07:33N 52°24' E 004°52'0 0.0
2015-Jan-24 06:33N 52°24' E 004°52'0 0.0
2015-Jan-24 05:33N 52°24' E 004°52'0 0.0
2015-Jan-24 04:30N 52°24' E 004°52'0 0.0
2015-Jan-24 03:33N 52°24' E 004°52'0 0.0
2015-Jan-24 02:33N 52°24' E 004°52'0 0.0
2015-Jan-24 01:30N 52°24' E 004°52'0 0.0
2015-Jan-24 00:33N 52°24' E 004°52'0 0.0
2015-Jan-23 23:33N 52°24' E 004°52'0 0.0
2015-Jan-23 22:33N 52°24' E 004°52'0 0.0
2015-Jan-23 21:33N 52°24' E 004°52'0 0.0
2015-Jan-23 20:33N 52°24' E 004°52'0 0.0
2015-Jan-23 19:33N 52°24' E 004°52'0 0.0
2015-Jan-23 18:33N 52°24' E 004°52'0 0.0
2015-Jan-23 17:33N 52°24' E 004°52'0 0.0
2015-Jan-23 16:33N 52°24' E 004°52'0 0.0
2015-Jan-23 15:33N 52°24' E 004°52'0 0.0
2015-Jan-23 14:33N 52°24' E 004°52'0 0.0
2015-Jan-23 13:33N 52°24' E 004°52'0 0.0
2015-Jan-23 12:33N 52°24' E 004°52'0 0.0
2015-Jan-23 11:33N 52°24' E 004°52'0 0.0
2015-Jan-23 10:33N 52°24' E 004°52'0 0.0
2015-Jan-23 09:33N 52°24' E 004°52'0 0.0
2015-Jan-23 08:33N 52°24' E 004°52'0 0.0
2015-Jan-23 07:33N 52°24' E 004°52'0 0.0
2015-Jan-23 06:33N 52°24' E 004°52'0 0.0
2015-Jan-23 05:33N 52°24' E 004°52'0 0.0
2015-Jan-23 04:33N 52°24' E 004°52'0 0.0
2015-Jan-23 03:31N 52°24' E 004°52'0 0.0
2015-Jan-23 02:33N 52°24' E 004°52'0 0.0
2015-Jan-23 01:25N 52°24' E 004°52'0 0.0
2015-Jan-23 00:33N 52°24' E 004°52'0 0.0
2015-Jan-22 23:33N 52°24' E 004°52'0 0.0
2015-Jan-22 22:33N 52°24' E 004°52'0 0.0
2015-Jan-22 21:33N 52°24' E 004°52'0 0.0
2015-Jan-22 20:33N 52°24' E 004°52'0 0.0
2015-Jan-22 19:30N 52°24' E 004°52'0 0.0
2015-Jan-22 18:33N 52°24' E 004°52'0 0.0
2015-Jan-22 17:33N 52°24' E 004°52'0 0.0
2015-Jan-22 16:33N 52°24' E 004°52'0 0.0
2015-Jan-22 15:33N 52°24' E 004°52'0 0.0
2015-Jan-22 14:33N 52°24' E 004°52'0 0.0
2015-Jan-22 13:33N 52°24' E 004°52'0 0.0
2015-Jan-22 12:33N 52°24' E 004°52'0 0.0
2015-Jan-22 11:33N 52°24' E 004°52'0 0.0
2015-Jan-22 10:33N 52°24' E 004°52'0 0.0
2015-Jan-22 09:33N 52°24' E 004°52'  
Track history (hours):
 
Tides and Currents Weather Stations Pressure Air Temp Water Temp Dewpoint Dewpoint Depression Visibility Wind Speed Wind Dir Waves Ship Positions

King of Scandinavia

Ship's website: http://www.dfds.co.uk/DSW/EN/OnBoard/na/KING.htm

Last reported at 2015-Feb-01 08:33 UTC. Time now 2015-Feb-01 08:48 UTC.
Position N 54°34' W 000°11'.

Length 166 m; beam 27.6 m; draft 6.2 m.

Type: Passenger vessel. MMSI: 220449000.

Date/timePositionNaut miles runAvg speedWind from/ knotsBaromVisibWave heightAir tempDewpointWater temp
2015-Feb-01 08:33N 54°34' W 000°11'1313.3
2015-Feb-01 07:33N 54°26' E 000°09'1312.9
2015-Feb-01 06:33N 54°19' E 000°27'15813.1
2015-Jan-31 18:33N 52°45' E 003°59'1414.2
2015-Jan-31 17:33N 52°36' E 004°17'1313.2
2015-Jan-31 16:34N 52°28' E 004°34'0 0.4
2015-Jan-31 15:32N 52°28' E 004°35'0 0.0
2015-Jan-31 14:32N 52°28' E 004°35'0 0.0
2015-Jan-31 13:32N 52°28' E 004°35'0 0.0
2015-Jan-31 12:32N 52°28' E 004°35'0 0.0
2015-Jan-31 11:32N 52°28' E 004°35'0 0.0
2015-Jan-31 10:32N 52°28' E 004°35'0 0.0
2015-Jan-31 09:32N 52°28' E 004°35'0 0.0
2015-Jan-31 08:34N 52°28' E 004°35'1111.2
2015-Jan-31 07:34N 52°34' E 004°20'1615.5
2015-Jan-31 06:34N 52°44' E 004°00'14517.8
2015-Jan-30 22:25N 54°12' E 000°46'1517.2
2015-Jan-30 21:34N 54°20' E 000°25'1717.2
2015-Jan-30 20:34N 54°29' E 000°01'1918.8
2015-Jan-30 19:34N 54°39' W 000°26'1918.8
2015-Jan-30 18:33N 54°50' W 000°54'1919.0
2015-Jan-30 17:33N 55°00' W 001°21'12 1.2
2015-Jan-30 07:33N 54°54' W 001°03'1110.4
2015-Jan-30 06:33N 54°48' W 000°48'1413.7
2015-Jan-30 05:32N 54°40' W 000°28'1616.5
2015-Jan-30 04:33N 54°31' W 000°05'1918.5
2015-Jan-30 03:33N 54°21' E 000°22'15218.1
2015-Jan-29 19:10N 52°52' E 003°49'915.5
2015-Jan-29 18:34N 52°45' E 003°59'1515.0
2015-Jan-29 17:33N 52°35' E 004°18'1312.9
2015-Jan-29 16:33N 52°28' E 004°35'0 0.0
2015-Jan-29 15:33N 52°28' E 004°35'0 0.0
2015-Jan-29 14:33N 52°28' E 004°35'0 0.0
2015-Jan-29 13:33N 52°28' E 004°35'0 0.2
2015-Jan-29 12:33N 52°28' E 004°35'0 0.2
2015-Jan-29 11:33N 52°28' E 004°35'0 0.0
2015-Jan-29 10:33N 52°28' E 004°35'0 0.0
2015-Jan-29 09:33N 52°28' E 004°35'0 0.0
2015-Jan-29 08:33N 52°28' E 004°35'1 0.7
2015-Jan-29 07:33N 52°28' E 004°36'3 2.8
2015-Jan-29 06:33N 52°27' E 004°40'6 6.1
2015-Jan-29 05:34N 52°25' E 004°50'1 1.3
2015-Jan-29 04:32N 52°24' E 004°52'0 0.0
2015-Jan-29 03:29N 52°24' E 004°52'0 0.0
2015-Jan-29 02:29N 52°24' E 004°52'0 0.0
2015-Jan-29 01:32N 52°24' E 004°52'0 0.0
2015-Jan-29 00:32N 52°24' E 004°52'0 0.0
2015-Jan-28 23:32N 52°24' E 004°52'0 0.0
2015-Jan-28 22:32N 52°24' E 004°52'0 0.0
2015-Jan-28 21:32N 52°24' E 004°52'0 0.0
2015-Jan-28 20:32N 52°24' E 004°52'0 0.0
2015-Jan-28 19:32N 52°24' E 004°52'0 0.0
2015-Jan-28 18:32N 52°24' E 004°52'0 0.0
2015-Jan-28 17:32N 52°24' E 004°52'0 0.0
2015-Jan-28 16:32N 52°24' E 004°52'0 0.0
2015-Jan-28 15:32N 52°24' E 004°52'0 0.0
2015-Jan-28 14:32N 52°24' E 004°52'0 0.0
2015-Jan-28 13:32N 52°24' E 004°52'0 0.0
2015-Jan-28 12:32N 52°24' E 004°52'0 0.0
2015-Jan-28 11:33N 52°24' E 004°52'0 0.0
2015-Jan-28 10:33N 52°24' E 004°52'0 0.0
2015-Jan-28 09:33N 52°24' E 004°52'0 0.0
2015-Jan-28 08:33N 52°24' E 004°52'0 0.0
2015-Jan-28 07:33N 52°24' E 004°52'0 0.0
2015-Jan-28 06:30N 52°24' E 004°52'0 0.0
2015-Jan-28 05:33N 52°24' E 004°52'0 0.0
2015-Jan-28 04:33N 52°24' E 004°52'0 0.0
2015-Jan-28 03:33N 52°24' E 004°52'0 0.0
2015-Jan-28 02:33N 52°24' E 004°52'0 0.0
2015-Jan-28 01:33N 52°24' E 004°52'0 0.0
2015-Jan-28 00:33N 52°24' E 004°52'0 0.0
2015-Jan-27 23:33N 52°24' E 004°52'0 0.0
2015-Jan-27 22:33N 52°24' E 004°52'0 0.0
2015-Jan-27 21:33N 52°24' E 004°52'0 0.0
2015-Jan-27 20:33N 52°24' E 004°52'0 0.0
2015-Jan-27 19:33N 52°24' E 004°52'0 0.0
2015-Jan-27 18:33N 52°24' E 004°52'0 0.0
2015-Jan-27 17:33N 52°24' E 004°52'0 0.0
2015-Jan-27 16:33N 52°24' E 004°52'0 0.0
2015-Jan-27 15:33N 52°24' E 004°52'0 0.0
2015-Jan-27 14:33N 52°24' E 004°52'0 0.0
2015-Jan-27 13:33N 52°24' E 004°52'0 0.0
2015-Jan-27 12:33N 52°24' E 004°52'0 0.0
2015-Jan-27 11:33N 52°24' E 004°52'0 0.0
2015-Jan-27 10:33N 52°24' E 004°52'0 0.0
2015-Jan-27 09:33N 52°24' E 004°52'0 0.0
2015-Jan-27 08:33N 52°24' E 004°52'0 0.0
2015-Jan-27 07:33N 52°24' E 004°52'0 0.0
2015-Jan-27 06:33N 52°24' E 004°52'0 0.0
2015-Jan-27 05:33N 52°24' E 004°52'0 0.0
2015-Jan-27 04:33N 52°24' E 004°52'0 0.0
2015-Jan-27 03:33N 52°24' E 004°52'0 0.0
2015-Jan-27 02:33N 52°24' E 004°52'0 0.0
2015-Jan-27 01:33N 52°24' E 004°52'0 0.0
2015-Jan-27 00:33N 52°24' E 004°52'0 0.0
2015-Jan-26 23:33N 52°24' E 004°52'0 0.0
2015-Jan-26 22:33N 52°24' E 004°52'0 0.0
2015-Jan-26 21:33N 52°24' E 004°52'0 0.0
2015-Jan-26 20:33N 52°24' E 004°52'0 0.0
2015-Jan-26 19:33N 52°24' E 004°52'0 0.0
2015-Jan-26 18:33N 52°24' E 004°52'0 0.0
2015-Jan-26 17:33N 52°24' E 004°52'0 0.0
2015-Jan-26 16:33N 52°24' E 004°52'0 0.0
2015-Jan-26 15:33N 52°24' E 004°52'0 0.0
2015-Jan-26 14:33N 52°24' E 004°52'0 0.0
2015-Jan-26 13:33N 52°24' E 004°52'0 0.0
2015-Jan-26 12:33N 52°24' E 004°52'0 0.0
2015-Jan-26 11:33N 52°24' E 004°52'0 0.0
2015-Jan-26 10:33N 52°24' E 004°52'0 0.0
2015-Jan-26 09:33N 52°24' E 004°52'0 0.0
2015-Jan-26 08:33N 52°24' E 004°52'0 0.0
2015-Jan-26 07:33N 52°24' E 004°52'0 0.0
2015-Jan-26 06:33N 52°24' E 004°52'0 0.0
2015-Jan-26 05:33N 52°24' E 004°52'0 0.0
2015-Jan-26 04:33N 52°24' E 004°52'0 0.0
2015-Jan-26 03:33N 52°24' E 004°52'0 0.0
2015-Jan-26 02:33N 52°24' E 004°52'0 0.0
2015-Jan-26 01:33N 52°24' E 004°52'0 0.0
2015-Jan-26 00:33N 52°24' E 004°52'0 0.0
2015-Jan-25 23:33N 52°24' E 004°52'0 0.0
2015-Jan-25 22:33N 52°24' E 004°52'0 0.0
2015-Jan-25 21:33N 52°24' E 004°52'0 0.0
2015-Jan-25 20:33N 52°24' E 004°52'0 0.0
2015-Jan-25 19:33N 52°24' E 004°52'0 0.0
2015-Jan-25 18:33N 52°24' E 004°52'0 0.0
2015-Jan-25 17:33N 52°24' E 004°52'0 0.0
2015-Jan-25 16:33N 52°24' E 004°52'0 0.0
2015-Jan-25 15:33N 52°24' E 004°52'0 0.0
2015-Jan-25 14:33N 52°24' E 004°52'0 0.0
2015-Jan-25 13:33N 52°24' E 004°52'0 0.0
2015-Jan-25 12:33N 52°24' E 004°52'0 0.0
2015-Jan-25 11:33N 52°24' E 004°52'0 0.0
2015-Jan-25 10:30N 52°24' E 004°52'0 0.0
2015-Jan-25 09:33N 52°24' E 004°52'0 0.0
2015-Jan-25 08:33N 52°24' E 004°52'0 0.0
2015-Jan-25 07:33N 52°24' E 004°52'0 0.0
2015-Jan-25 06:33N 52°24' E 004°52'0 0.0
2015-Jan-25 05:33N 52°24' E 004°52'0 0.0
2015-Jan-25 04:33N 52°24' E 004°52'0 0.0
2015-Jan-25 03:33N 52°24' E 004°52'0 0.0
2015-Jan-25 02:33N 52°24' E 004°52'0 0.0
2015-Jan-25 01:33N 52°24' E 004°52'0 0.0
2015-Jan-25 00:33N 52°24' E 004°52'0 0.0
2015-Jan-24 23:33N 52°24' E 004°52'0 0.0
2015-Jan-24 22:33N 52°24' E 004°52'0 0.0
2015-Jan-24 21:33N 52°24' E 004°52'0 0.0
2015-Jan-24 20:33N 52°24' E 004°52'0 0.0
2015-Jan-24 19:33N 52°24' E 004°52'0 0.0
2015-Jan-24 18:33N 52°24' E 004°52'0 0.0
2015-Jan-24 17:33N 52°24' E 004°52'0 0.0
2015-Jan-24 16:33N 52°24' E 004°52'0 0.0
2015-Jan-24 15:33N 52°24' E 004°52'0 0.0
2015-Jan-24 14:33N 52°24' E 004°52'0 0.0
2015-Jan-24 13:33N 52°24' E 004°52'0 0.0
2015-Jan-24 12:33N 52°24' E 004°52'0 0.0
2015-Jan-24 11:33N 52°24' E 004°52'0 0.0
2015-Jan-24 10:33N 52°24' E 004°52'0 0.0
2015-Jan-24 09:33N 52°24' E 004°52'0 0.0
2015-Jan-24 08:33N 52°24' E 004°52'0 0.0
2015-Jan-24 07:33N 52°24' E 004°52'0 0.0
2015-Jan-24 06:33N 52°24' E 004°52'0 0.0
2015-Jan-24 05:33N 52°24' E 004°52'0 0.0
2015-Jan-24 04:30N 52°24' E 004°52'0 0.0
2015-Jan-24 03:33N 52°24' E 004°52'0 0.0
2015-Jan-24 02:33N 52°24' E 004°52'0 0.0
2015-Jan-24 01:30N 52°24' E 004°52'0 0.0
2015-Jan-24 00:33N 52°24' E 004°52'0 0.0
2015-Jan-23 23:33N 52°24' E 004°52'0 0.0
2015-Jan-23 22:33N 52°24' E 004°52'0 0.0
2015-Jan-23 21:33N 52°24' E 004°52'0 0.0
2015-Jan-23 20:33N 52°24' E 004°52'0 0.0
2015-Jan-23 19:33N 52°24' E 004°52'0 0.0
2015-Jan-23 18:33N 52°24' E 004°52'0 0.0
2015-Jan-23 17:33N 52°24' E 004°52'0 0.0
2015-Jan-23 16:33N 52°24' E 004°52'0 0.0
2015-Jan-23 15:33N 52°24' E 004°52'0 0.0
2015-Jan-23 14:33N 52°24' E 004°52'0 0.0
2015-Jan-23 13:33N 52°24' E 004°52'0 0.0
2015-Jan-23 12:33N 52°24' E 004°52'0 0.0
2015-Jan-23 11:33N 52°24' E 004°52'0 0.0
2015-Jan-23 10:33N 52°24' E 004°52'0 0.0
2015-Jan-23 09:33N 52°24' E 004°52'0 0.0
2015-Jan-23 08:33N 52°24' E 004°52'0 0.0
2015-Jan-23 07:33N 52°24' E 004°52'0 0.0
2015-Jan-23 06:33N 52°24' E 004°52'0 0.0
2015-Jan-23 05:33N 52°24' E 004°52'0 0.0
2015-Jan-23 04:33N 52°24' E 004°52'0 0.0
2015-Jan-23 03:31N 52°24' E 004°52'0 0.0
2015-Jan-23 02:33N 52°24' E 004°52'0 0.0
2015-Jan-23 01:25N 52°24' E 004°52'0 0.0
2015-Jan-23 00:33N 52°24' E 004°52'0 0.0
2015-Jan-22 23:33N 52°24' E 004°52'0 0.0
2015-Jan-22 22:33N 52°24' E 004°52'0 0.0
2015-Jan-22 21:33N 52°24' E 004°52'0 0.0
2015-Jan-22 20:33N 52°24' E 004°52'0 0.0
2015-Jan-22 19:30N 52°24' E 004°52'0 0.0
2015-Jan-22 18:33N 52°24' E 004°52'0 0.0
2015-Jan-22 17:33N 52°24' E 004°52'0 0.0
2015-Jan-22 16:33N 52°24' E 004°52'0 0.0
2015-Jan-22 15:33N 52°24' E 004°52'0 0.0
2015-Jan-22 14:33N 52°24' E 004°52'0 0.0
2015-Jan-22 13:33N 52°24' E 004°52'0 0.0
2015-Jan-22 12:33N 52°24' E 004°52'0 0.0
2015-Jan-22 11:33N 52°24' E 004°52'0 0.0
2015-Jan-22 10:33N 52°24' E 004°52'0 0.0
2015-Jan-22 09:33N 52°24' E 004°52'  

Dump ship's entire track history